Terminal Aerodrome Forecast
Issued by NWS Shreveport, LA

Home | Current Version | Previous Version | Text Only | Print | Product List | Glossary On
Versions: 1 2 3 4 5 6 7 8 9 10 11 12 13 14 15 16 17 18 19 20 21 22 23 24 25 26 27 28 29 30 31 32 33 34 35
231
FTUS44 KSHV 291120
TAFSHV
TAF
KSHV 291120Z 2912/3012 18003KT P6SM FEW003 SCT110 OVC180
      TEMPO 2912/2914 5SM BR BKN003
     FM291400 22005KT P6SM SCT010 SCT180 BKN250
     FM291600 23007KT P6SM VCTS SCT035CB SCT250
     FM291800 22007KT P6SM VCTS SCT045CB SCT250
     FM300000 19004KT P6SM FEW060 SCT250=

USA.gov is the U.S. government's official web portal to all federal, state and local government web resources and services.